Time;durP1;ratioP1;P1;durP2;ratioP2;P2;SDS_P1;SDS_P2;PMS_P1;PMS_P2;Temp;Humidity;BMP_temperature;BMP_pressure;BME280_temperature;BME280_humidity;BME280_pressure;Samples;Min_cycle;Max_cycle;Signal;HPM_P1;HPM_P2
2022/09/18 00:04:29;;;;;;;4.60;1.80;;;;;;;7.87;74.85;99101.25;30620369;28;105802;-64
2022/09/18 00:19:30;;;;;;;4.93;1.67;;;;;;;7.45;75.34;99090.97;30619375;28;96601;-68
2022/09/18 00:34:31;;;;;;;6.97;1.67;;;;;;;7.17;75.61;99090.66;30616772;28;113286;-65
2022/09/18 00:49:32;;;;;;;5.28;1.48;;;;;;;7.09;76.61;99078.31;30615721;28;112479;-69
2022/09/18 01:04:32;;;;;;;4.20;1.35;;;;;;;7.06;76.52;99077.81;30614626;28;96819;-64
2022/09/18 01:20:01;;;;;;;5.57;1.35;;;;;;;7.22;77.23;99076.91;30613587;28;97053;-64
2022/09/18 01:35:20;;;;;;;3.87;1.13;;;;;;;7.71;77.50;99075.69;30611513;28;97282;-66
2022/09/18 01:50:21;;;;;;;2.93;1.00;;;;;;;8.23;76.70;99089.94;30611581;28;96829;-66
2022/09/18 02:05:37;;;;;;;6.53;1.40;;;;;;;8.55;75.90;99075.50;30610280;28;96677;-64
2022/09/18 02:20:42;;;;;;;3.47;0.80;;;;;;;8.66;75.82;99060.94;30624494;28;97302;-63
2022/09/18 02:35:49;;;;;;;1.27;0.83;;;;;;;8.77;75.76;99054.34;30629007;28;96875;-64
2022/09/18 02:50:52;;;;;;;2.00;0.70;;;;;;;8.85;75.64;99048.91;30627895;28;97543;-66
2022/09/18 03:05:52;;;;;;;1.13;0.40;;;;;;;8.94;75.28;99039.84;30625841;28;96665;-66
2022/09/18 03:20:53;;;;;;;0.73;0.40;;;;;;;8.93;74.67;99042.69;30624533;28;96780;-63
2022/09/18 03:35:54;;;;;;;0.70;0.60;;;;;;;8.74;74.90;99042.25;30621825;28;96717;-64
2022/09/18 03:50:54;;;;;;;2.45;0.75;;;;;;;8.87;75.14;99028.31;30619965;28;123170;-63
2022/09/18 04:05:55;;;;;;;1.85;0.75;;;;;;;8.93;75.29;99042.69;30620038;28;96700;-62
2022/09/18 04:20:55;;;;;;;0.65;0.57;;;;;;;8.86;75.14;99033.78;30617568;28;112598;-62
2022/09/18 04:35:56;;;;;;;0.90;0.80;;;;;;;8.62;75.54;99038.44;30615877;28;97405;-62
2022/09/18 04:50:56;;;;;;;6.22;2.60;;;;;;;8.76;76.08;99042.06;30614528;28;97102;-63
2022/09/18 05:05:56;;;;;;;1.65;0.80;;;;;;;8.83;75.63;99052.78;30614439;28;112108;-64
2022/09/18 05:21:04;;;;;;;1.42;1.10;;;;;;;8.78;76.33;99054.16;30610609;28;97660;-64
2022/09/18 05:36:04;;;;;;;1.43;1.00;;;;;;;8.85;76.49;99054.22;30610005;28;96732;-66
2022/09/18 05:51:05;;;;;;;1.52;1.08;;;;;;;8.91;77.10;99057.97;30619235;28;97663;-66
2022/09/18 06:06:05;;;;;;;1.23;1.00;;;;;;;9.08;76.90;99053.25;30629829;28;96983;-63
2022/09/18 06:21:06;;;;;;;3.08;1.20;;;;;;;9.13;77.41;99058.81;30628004;28;96680;-62
2022/09/18 06:36:10;;;;;;;1.63;1.23;;;;;;;9.24;77.27;99060.16;30627840;28;97451;-63
2022/09/18 06:51:11;;;;;;;3.00;1.50;;;;;;;9.36;77.65;99055.97;30624804;28;97261;-63
2022/09/18 07:06:11;;;;;;;2.00;1.58;;;;;;;9.60;78.43;99080.53;30623263;28;120431;-66
2022/09/18 07:21:11;;;;;;;4.18;2.60;;;;;;;10.66;78.52;99077.78;30622509;28;96671;-66
2022/09/18 07:36:12;;;;;;;1.58;1.13;;;;;;;11.78;75.91;99090.78;30620550;28;96730;-73
2022/09/18 07:51:12;;;;;;;0.85;0.80;;;;;;;11.52;75.76;99099.56;30619465;28;97620;-63
2022/09/18 08:06:12;;;;;;;1.38;0.90;;;;;;;11.40;75.84;99107.34;30617872;28;96513;-64
2022/09/18 08:21:13;;;;;;;1.85;0.80;;;;;;;11.44;76.03;99111.25;30615132;28;96831;-69
2022/09/18 08:36:13;;;;;;;0.95;0.85;;;;;;;11.46;75.33;99111.88;30613865;28;96613;-67
2022/09/18 08:51:21;;;;;;;0.45;0.45;;;;;;;11.38;76.33;99114.72;30613581;28;111023;-65
2022/09/18 09:06:22;;;;;;;0.40;0.40;;;;;;;10.95;76.27;99142.47;30613740;28;100472;-67
2022/09/18 09:21:40;;;;;;;0.90;0.40;;;;;;;10.94;76.67;99158.66;30612635;28;96850;-67
2022/09/18 09:36:47;;;;;;;2.07;0.80;;;;;;;10.90;76.66;99176.88;30610809;28;97954;-67
2022/09/18 09:52:01;;;;;;;1.17;0.67;;;;;;;11.13;76.75;99195.22;30610343;28;96778;-65
2022/09/18 10:07:16;;;;;;;2.97;0.80;;;;;;;11.11;76.51;99215.09;30608848;28;96645;-65
2022/09/18 10:22:19;;;;;;;2.77;1.27;;;;;;;10.73;76.69;99245.66;30606361;28;97301;-69
2022/09/18 10:37:28;;;;;;;4.23;1.70;;;;;;;10.63;76.46;99264.63;30614107;28;97014;-65
2022/09/18 10:52:35;;;;;;;5.97;2.13;;;;;;;11.67;76.75;99276.28;30626032;28;98295;-64
2022/09/18 11:07:38;;;;;;;6.33;1.90;;;;;;;11.90;74.88;99284.97;30624391;28;97272;-66
2022/09/18 11:22:41;;;;;;;18.80;12.20;;;;;;;11.67;75.22;99294.13;30622213;28;96687;-70
2022/09/18 11:37:55;;;;;;;8.73;2.93;;;;;;;12.10;74.74;99301.06;30619614;28;97142;-71
2022/09/18 11:53:00;;;;;;;;;;;;;;;12.27;74.33;99282.81;30620383;28;96819;-68
2022/09/18 12:08:21;;;;;;;7.60;1.73;;;;;;;13.34;72.70;99286.22;30620467;28;96825;-71
2022/09/18 12:23:26;;;;;;;6.47;1.77;;;;;;;15.42;68.75;99282.09;30618278;28;97019;-71
2022/09/18 12:38:36;;;;;;;6.47;1.83;;;;;;;16.32;66.56;99272.47;30615023;28;96794;-69
2022/09/18 12:53:45;;;;;;;5.80;1.00;;;;;;;17.93;60.99;99270.34;30614215;28;97009;-73
2022/09/18 13:08:51;;;;;;;4.77;1.60;;;;;;;17.71;57.64;99258.56;30612327;28;101950;-73
2022/09/18 13:23:53;;;;;;;4.43;1.10;;;;;;;16.42;58.04;99261.16;30612135;28;100705;-70
2022/09/18 13:38:58;;;;;;;3.93;1.30;;;;;;;18.91;55.82;99260.38;30609514;28;96731;-72
2022/09/18 13:54:21;;;;;;;4.73;0.80;;;;;;;18.55;50.98;99260.63;30608185;28;96745;-72
2022/09/18 14:09:44;;;;;;;2.57;0.50;;;;;;;17.32;49.93;99266.41;30612081;28;97673;-65
2022/09/18 14:24:48;;;;;;;3.47;0.80;;;;;;;17.57;48.41;99258.84;30627084;28;96977;-73
2022/09/18 14:39:48;;;;;;;4.30;1.27;;;;;;;16.46;46.93;99224.69;30626215;28;96653;-70
2022/09/18 14:54:50;;;;;;;4.80;1.10;;;;;;;15.20;48.55;99253.03;30624709;28;96857;-68
2022/09/18 15:09:54;;;;;;;5.30;0.97;;;;;;;14.85;51.48;99239.38;30623994;28;96635;-66
2022/09/18 15:24:57;;;;;;;4.80;1.20;;;;;;;13.95;52.30;99251.19;30621646;28;96717;-72
2022/09/18 15:40:05;;;;;;;5.47;1.00;;;;;;;13.85;52.69;99241.75;30620208;28;96785;-69
2022/09/18 15:55:08;;;;;;;2.97;0.70;;;;;;;13.40;53.41;99257.84;30618668;28;97234;-67
2022/09/18 16:10:27;;;;;;;;;;;;;;;13.57;54.15;99273.41;30617310;28;96768;-69
2022/09/18 16:25:28;;;;;;;2.90;1.10;;;;;;;13.12;54.68;99277.66;30618727;28;96724;-67
2022/09/18 16:40:30;;;;;;;4.57;1.20;;;;;;;12.38;55.91;99268.03;30613457;28;96702;-66
2022/09/18 16:55:31;;;;;;;3.40;1.00;;;;;;;11.70;56.88;99272.41;30613582;28;97835;-70
2022/09/18 17:10:33;;;;;;;8.23;1.40;;;;;;;11.41;58.21;99252.97;30612180;28;96656;-73
2022/09/18 17:25:33;;;;;;;4.13;1.60;;;;;;;10.95;60.18;99267.72;30611333;28;96746;-63
2022/09/18 17:40:33;;;;;;;3.50;0.93;;;;;;;10.80;60.73;99277.66;30608189;28;107428;-71
2022/09/18 17:55:34;;;;;;;2.60;0.85;;;;;;;10.57;61.58;99291.22;30630235;28;113461;-73
2022/09/18 18:10:35;;;;;;;2.53;0.98;;;;;;;10.35;62.17;99304.53;30629402;28;96569;-70
2022/09/18 18:25:35;;;;;;;1.83;0.80;;;;;;;10.15;63.46;99313.09;30626249;28;97547;-69
2022/09/18 18:40:37;;;;;;;3.13;1.30;;;;;;;10.05;64.40;99317.09;30626038;28;97456;-67
2022/09/18 18:55:37;;;;;;;3.80;1.10;;;;;;;9.97;65.29;99310.06;30623902;28;96811;-69
2022/09/18 19:10:38;;;;;;;3.63;1.33;;;;;;;9.70;67.03;99307.06;30621819;28;110672;-72
2022/09/18 19:25:38;;;;;;;4.72;1.17;;;;;;;9.51;68.56;99297.03;30622920;28;96740;-66
2022/09/18 19:40:39;;;;;;;3.75;1.30;;;;;;;9.27;70.04;99301.63;30620437;28;96766;-65
2022/09/18 19:55:43;;;;;;;1.52;0.60;;;;;;;9.01;70.42;99302.06;30619830;28;101802;-63
2022/09/18 20:10:45;;;;;;;;;;;;;;;8.70;72.03;99289.75;30619105;28;96622;-64
2022/09/18 20:25:47;;;;;;;1.53;0.97;;;;;;;8.49;72.48;99277.16;30618020;28;96876;-68
2022/09/18 20:41:02;;;;;;;2.90;0.60;;;;;;;8.38;74.17;99286.34;30616208;28;96633;-70
2022/09/18 20:56:03;;;;;;;2.73;0.87;;;;;;;8.31;74.45;99288.91;30611681;28;96866;-68
2022/09/18 21:11:04;;;;;;;3.80;1.00;;;;;;;8.21;75.29;99278.50;30613211;28;96503;-65
2022/09/18 21:26:12;;;;;;;1.48;0.88;;;;;;;8.11;75.85;99276.09;30613790;28;96692;-64
2022/09/18 21:41:13;;;;;;;4.03;1.77;;;;;;;8.07;76.04;99269.47;30612153;28;97148;-66
2022/09/18 21:56:18;;;;;;;3.40;1.73;;;;;;;7.72;76.35;99263.75;30612095;28;96607;-68
2022/09/18 22:11:23;;;;;;;4.40;2.40;;;;;;;7.57;77.36;99265.47;30610955;28;96652;-69
2022/09/18 22:26:25;;;;;;;5.00;2.40;;;;;;;7.59;77.63;99279.41;30609205;28;96624;-66
2022/09/18 22:41:26;;;;;;;2.87;1.53;;;;;;;7.49;77.71;99278.75;30627600;28;96665;-69
2022/09/18 22:56:28;;;;;;;6.10;1.42;;;;;;;7.49;78.11;99284.06;30627351;28;111934;-67
2022/09/18 23:11:30;;;;;;;2.67;1.10;;;;;;;7.41;77.87;99287.59;30626743;28;96619;-64
2022/09/18 23:26:33;;;;;;;1.70;1.03;;;;;;;7.44;78.04;99292.53;30625276;28;98558;-70
2022/09/18 23:41:34;;;;;;;2.90;1.20;;;;;;;7.41;78.37;99280.47;30623422;28;96803;-67
2022/09/18 23:56:36;;;;;;;2.30;1.17;;;;;;;7.47;78.28;99275.47;30622612;28;96558;-64
